Time;durP1;ratioP1;P1;durP2;ratioP2;P2;SDS_P1;SDS_P2;PMS_P1;PMS_P2;Temp;Humidity;BMP_temperature;BMP_pressure;BME280_temperature;BME280_humidity;BME280_pressure;Samples;Min_cycle;Max_cycle;Signal;HPM_P1;HPM_P2
2022/05/30 00:01:40;;;;;;;5.07;3.65;;;;;;;19.65;46.36;101334.41;5131888;27;20015;-61
2022/05/30 00:04:05;;;;;;;5.70;3.70;;;;;;;19.65;46.62;101333.56;5096975;28;20032;-61
2022/05/30 00:06:30;;;;;;;5.80;3.78;;;;;;;19.65;46.41;101339.81;5117933;28;20065;-61
2022/05/30 00:08:56;;;;;;;8.40;4.07;;;;;;;19.65;46.44;101333.56;5115584;28;20027;-61
2022/05/30 00:11:22;;;;;;;6.00;3.25;;;;;;;19.65;46.16;101342.50;5111995;28;20178;-61
2022/05/30 00:13:48;;;;;;;6.15;3.60;;;;;;;19.65;46.16;101338.97;5117106;28;20389;-61
2022/05/30 00:16:16;;;;;;;5.47;3.00;;;;;;;19.64;46.09;101338.13;5106944;28;20031;-61
2022/05/30 00:18:42;;;;;;;6.22;3.53;;;;;;;19.64;46.16;101334.56;5090532;28;20047;-61
2022/05/30 00:21:07;;;;;;;5.30;3.17;;;;;;;19.62;45.89;101328.47;5116287;28;20024;-61
2022/05/30 00:23:33;;;;;;;4.57;3.60;;;;;;;19.62;45.99;101318.53;5121612;28;20040;-61
2022/05/30 00:25:58;;;;;;;7.05;3.22;;;;;;;19.58;45.93;101309.09;5103622;28;20028;-61
2022/05/30 00:28:24;;;;;;;6.55;3.78;;;;;;;19.62;46.14;101320.41;5103187;28;20032;-61
2022/05/30 00:30:49;;;;;;;5.85;2.90;;;;;;;19.62;46.10;101321.22;5107559;28;20024;-61
2022/05/30 00:33:15;;;;;;;5.82;3.60;;;;;;;19.61;45.79;101319.56;5102732;28;20032;-61
2022/05/30 00:35:41;;;;;;;5.63;3.40;;;;;;;19.61;45.95;101314.16;5115781;28;20022;-61
2022/05/30 00:38:07;;;;;;;5.30;3.20;;;;;;;19.60;45.67;101312.44;5104697;28;20641;-61
2022/05/30 00:40:33;;;;;;;5.22;3.38;;;;;;;19.60;45.67;101311.59;5095594;28;20027;-61
2022/05/30 00:43:17;;;;;;;4.75;3.05;;;;;;;19.60;45.76;101315.13;5108972;28;20035;-61
2022/05/30 00:45:42;;;;;;;5.20;2.55;;;;;;;19.59;46.14;101321.56;5112971;28;20026;-61
2022/05/30 00:48:08;;;;;;;4.15;2.67;;;;;;;19.59;45.96;101326.94;5108529;28;20115;-61
2022/05/30 00:50:33;;;;;;;5.13;3.03;;;;;;;19.58;45.78;101317.16;5114520;28;20094;-61
2022/05/30 00:52:58;;;;;;;5.47;2.92;;;;;;;19.57;45.84;101318.16;5119359;28;20031;-61
2022/05/30 00:55:23;;;;;;;4.50;2.97;;;;;;;19.56;45.84;101304.84;5091289;28;20055;-61
2022/05/30 00:57:49;;;;;;;4.03;2.78;;;;;;;19.57;45.72;101309.22;5109062;28;20106;-62
2022/05/30 01:00:20;;;;;;;5.65;3.28;;;;;;;19.56;45.90;101304.84;5098251;28;20028;-62
2022/05/30 01:06:30;;;;;;;3.97;2.50;;;;;;;19.40;45.67;101282.19;5116710;28;20035;-60
2022/05/30 01:08:15;;;;;;;3.90;2.42;;;;;;;19.54;45.75;101315.81;5110143;28;20037;-61
2022/05/30 01:10:40;;;;;;;4.93;2.58;;;;;;;19.37;45.73;101276.28;5116527;28;20107;-61
2022/05/30 01:13:10;;;;;;;4.18;2.67;;;;;;;19.54;45.61;101312.25;5120828;28;20522;-61
2022/05/30 01:15:36;;;;;;;5.18;3.10;;;;;;;19.54;45.67;101306.84;5106752;28;20593;-61
2022/05/30 01:18:08;;;;;;;3.40;2.47;;;;;;;19.54;45.75;101313.09;5111076;28;20039;-60
2022/05/30 01:20:52;;;;;;;4.93;2.60;;;;;;;19.53;45.48;101307.84;5094979;28;20024;-61
2022/05/30 01:23:35;;;;;;;4.13;2.75;;;;;;;19.47;45.70;101302.13;5126043;28;20039;-61
2022/05/30 01:26:15;;;;;;;4.75;2.85;;;;;;;19.51;45.91;101310.72;5088642;28;20039;-61
2022/05/30 01:28:53;;;;;;;3.88;2.70;;;;;;;19.51;45.38;101309.88;5088541;28;20063;-61
2022/05/30 01:31:19;;;;;;;4.30;2.88;;;;;;;19.50;45.61;101309.06;5089053;28;20527;-61
2022/05/30 01:33:44;;;;;;;5.32;2.67;;;;;;;19.49;45.56;101308.19;5107660;28;20020;-61
2022/05/30 01:36:09;;;;;;;3.85;2.47;;;;;;;19.45;45.62;101297.88;5118685;28;20039;-61
2022/05/30 01:38:35;;;;;;;3.58;2.53;;;;;;;19.49;45.81;101305.47;5119982;28;20055;-60
2022/05/30 01:41:00;;;;;;;3.55;2.20;;;;;;;19.47;45.20;101299.41;5106343;28;20093;-61
2022/05/30 01:43:26;;;;;;;6.78;3.10;;;;;;;19.44;45.39;101296.19;5105740;28;20032;-61
2022/05/30 01:45:51;;;;;;;5.13;2.83;;;;;;;19.47;45.29;101306.66;5106190;28;20030;-61
2022/05/30 01:48:17;;;;;;;3.00;2.25;;;;;;;19.46;45.43;101295.03;5105219;28;20031;-61
2022/05/30 01:50:45;;;;;;;5.05;2.33;;;;;;;19.47;45.46;101298.56;5106088;28;20024;-61
2022/05/30 01:53:11;;;;;;;6.40;3.40;;;;;;;19.46;45.45;101294.19;5105808;28;20038;-61
2022/05/30 01:55:37;;;;;;;4.47;2.45;;;;;;;19.46;45.55;101291.50;5105940;28;20020;-61
2022/05/30 01:58:02;;;;;;;4.28;2.53;;;;;;;19.45;45.15;101289.78;5123479;28;20040;-61
2022/05/30 02:00:27;;;;;;;4.45;2.45;;;;;;;19.44;45.17;101291.66;5126618;28;20015;-61
2022/05/30 02:02:53;;;;;;;4.50;2.42;;;;;;;19.44;45.38;101288.94;5111166;28;20023;-61
2022/05/30 02:05:18;;;;;;;3.45;2.00;;;;;;;19.44;45.44;101288.09;5117232;28;20028;-61
2022/05/30 02:07:44;;;;;;;3.90;2.08;;;;;;;19.44;45.41;101288.09;5119643;28;20045;-61
2022/05/30 02:10:09;;;;;;;2.88;2.10;;;;;;;19.42;45.45;101280.19;5138290;27;20035;-61
2022/05/30 02:12:34;;;;;;;3.47;2.42;;;;;;;19.42;45.22;101282.88;5112729;28;20024;-61
2022/05/30 02:14:59;;;;;;;4.57;2.30;;;;;;;19.41;45.41;101281.22;5101530;28;20024;-61
2022/05/30 02:17:25;;;;;;;3.65;2.30;;;;;;;19.41;45.15;101280.34;5107693;28;20058;-61
2022/05/30 02:19:50;;;;;;;4.20;2.25;;;;;;;19.41;45.11;101277.63;5119758;28;20055;-61
2022/05/30 02:22:18;;;;;;;3.85;2.05;;;;;;;19.38;45.04;101275.28;5116628;28;20028;-61
2022/05/30 02:24:44;;;;;;;2.87;2.20;;;;;;;19.40;45.30;101278.66;5119376;28;20111;-61
2022/05/30 02:27:11;;;;;;;3.38;2.20;;;;;;;19.38;44.92;101284.22;5094138;28;20024;-61
2022/05/30 02:29:37;;;;;;;4.18;1.92;;;;;;;19.38;45.44;101286.06;5112568;28;20099;-61
2022/05/30 02:32:03;;;;;;;5.28;2.13;;;;;;;19.34;45.18;101288.25;5119642;28;20028;-61
2022/05/30 02:37:12;;;;;;;4.00;1.92;;;;;;;19.29;45.39;101279.81;5111185;28;20046;-61
2022/05/30 02:39:37;;;;;;;3.15;1.70;;;;;;;19.36;45.12;101282.69;5113469;28;20040;-61
2022/05/30 02:42:04;;;;;;;3.00;1.98;;;;;;;19.34;44.90;101277.47;5119296;28;20058;-61
2022/05/30 02:44:29;;;;;;;2.78;1.67;;;;;;;19.34;45.25;101274.75;5114460;28;20076;-61
2022/05/30 02:46:57;;;;;;;3.63;1.92;;;;;;;19.29;45.02;101274.41;5110923;28;20031;-60
2022/05/30 02:49:23;;;;;;;3.40;2.10;;;;;;;19.34;45.31;101273.94;5116996;28;20028;-59
2022/05/30 02:51:48;;;;;;;4.60;2.90;;;;;;;19.34;45.06;101276.63;5110996;28;20024;-61
2022/05/30 02:54:14;;;;;;;4.55;1.92;;;;;;;19.33;45.19;101280.34;5086142;28;20157;-61
2022/05/30 02:56:40;;;;;;;3.72;2.20;;;;;;;19.31;45.00;101285.88;5104963;28;20062;-61
2022/05/30 02:59:06;;;;;;;3.28;2.13;;;;;;;19.32;45.20;101281.31;5104483;28;20076;-62
2022/05/30 03:01:32;;;;;;;3.50;1.80;;;;;;;19.31;45.27;101280.47;5110608;28;20039;-61
2022/05/30 03:03:59;;;;;;;4.20;2.95;;;;;;;19.27;45.23;101276.41;5112253;28;20088;-61
2022/05/30 03:06:25;;;;;;;2.97;1.92;;;;;;;19.31;45.25;101285.03;5108595;28;20135;-60
2022/05/30 03:08:50;;;;;;;2.63;2.00;;;;;;;19.31;45.29;101282.31;5131160;27;20011;-60
2022/05/30 03:11:16;;;;;;;2.70;1.70;;;;;;;19.29;45.02;101277.13;5114887;27;20020;-60
2022/05/30 03:13:41;;;;;;;3.00;1.67;;;;;;;19.25;45.48;101267.66;5116669;28;20031;-60
2022/05/30 03:16:06;;;;;;;3.90;1.45;;;;;;;19.22;45.18;101271.50;5118666;28;20028;-60
2022/05/30 03:18:32;;;;;;;2.92;1.90;;;;;;;19.29;45.18;101281.66;5109453;28;20031;-60
2022/05/30 03:20:57;;;;;;;2.60;1.80;;;;;;;19.22;44.94;101271.50;5123599;28;20047;-60
2022/05/30 03:23:23;;;;;;;2.30;1.70;;;;;;;19.27;45.21;101280.97;5110005;28;20037;-60
2022/05/30 03:25:49;;;;;;;2.97;1.75;;;;;;;19.27;45.06;101272.88;5114885;28;20081;-60
2022/05/30 03:28:14;;;;;;;3.78;1.80;;;;;;;19.27;45.22;101278.25;5118356;28;20027;-60
2022/05/30 03:30:39;;;;;;;2.90;1.60;;;;;;;19.26;44.98;101281.97;5112028;28;20020;-59
2022/05/30 03:33:06;;;;;;;3.15;1.70;;;;;;;19.25;44.98;101288.38;5091280;28;20044;-59
2022/05/30 03:35:32;;;;;;;2.83;1.50;;;;;;;19.25;45.03;101281.13;5118019;28;20027;-59
2022/05/30 03:37:57;;;;;;;3.13;1.80;;;;;;;19.22;44.88;101281.44;5115134;28;20047;-60
2022/05/30 03:40:23;;;;;;;3.30;1.85;;;;;;;19.23;45.24;101278.59;5110062;28;20440;-60
2022/05/30 03:42:48;;;;;;;3.78;1.80;;;;;;;19.23;45.04;101281.28;5114248;28;20012;-60
2022/05/30 03:45:14;;;;;;;2.95;1.58;;;;;;;19.23;44.93;101281.28;5118320;28;20443;-60
2022/05/30 03:47:41;;;;;;;2.30;1.30;;;;;;;19.22;45.30;101284.97;5111334;28;20383;-60
2022/05/30 03:50:08;;;;;;;2.72;1.80;;;;;;;19.22;45.26;101276.91;5109728;28;20024;-60
2022/05/30 03:52:33;;;;;;;2.35;1.48;;;;;;;19.21;45.28;101275.22;5120098;28;20019;-60
2022/05/30 03:54:58;;;;;;;3.05;1.98;;;;;;;19.21;44.95;101275.22;5111844;28;20181;-60
2022/05/30 03:57:24;;;;;;;2.40;1.83;;;;;;;19.21;45.20;101271.69;5107738;28;20028;-60
2022/05/30 03:59:49;;;;;;;2.58;1.77;;;;;;;19.20;45.19;101267.31;5103505;28;20035;-60
2022/05/30 04:02:14;;;;;;;2.75;1.40;;;;;;;19.07;44.91;101246.16;5103701;28;20052;-60
2022/05/30 04:04:40;;;;;;;2.13;1.52;;;;;;;19.19;45.17;101276.38;5103198;28;20020;-60
2022/05/30 04:07:05;;;;;;;2.80;1.50;;;;;;;19.19;44.92;101271.81;5103578;28;20537;-60
2022/05/30 04:09:30;;;;;;;2.70;1.67;;;;;;;19.19;45.04;101268.28;5128493;27;20021;-60
2022/05/30 04:11:55;;;;;;;3.38;1.50;;;;;;;19.16;45.07;101269.47;5104979;28;20396;-60
2022/05/30 04:14:21;;;;;;;4.43;2.25;;;;;;;19.19;45.10;101265.59;5103150;28;20108;-59
2022/05/30 04:16:46;;;;;;;2.85;1.80;;;;;;;19.16;45.27;101268.63;5109654;28;20031;-60
2022/05/30 04:19:12;;;;;;;3.17;1.77;;;;;;;19.17;45.16;101262.22;5108724;28;20027;-57
2022/05/30 04:21:37;;;;;;;3.30;1.50;;;;;;;19.17;45.36;101268.47;5107642;28;20038;-54
2022/05/30 04:24:03;;;;;;;3.65;1.60;;;;;;;19.17;45.40;101273.00;5108535;28;20028;-54
2022/05/30 04:26:28;;;;;;;3.33;1.45;;;;;;;19.17;45.66;101271.16;5107222;28;20058;-57
2022/05/30 04:28:53;;;;;;;3.30;1.85;;;;;;;19.17;45.54;101273.00;5105197;28;20016;-56
2022/05/30 04:31:18;;;;;;;3.13;1.42;;;;;;;19.18;45.92;101277.38;5104742;28;20031;-57
2022/05/30 04:33:44;;;;;;;2.22;1.27;;;;;;;19.18;45.88;101278.22;5108262;28;20034;-56
2022/05/30 04:36:10;;;;;;;3.38;1.75;;;;;;;19.18;45.98;101270.13;5106210;28;20027;-57
2022/05/30 04:38:36;;;;;;;4.60;1.60;;;;;;;19.17;45.95;101281.09;5103131;28;20408;-59
2022/05/30 04:41:02;;;;;;;1.75;1.33;;;;;;;19.16;46.12;101280.25;5081828;28;20019;-60
2022/05/30 04:43:27;;;;;;;2.63;1.60;;;;;;;19.16;46.17;101279.41;5107647;28;20077;-60
2022/05/30 04:46:15;;;;;;;3.00;1.40;;;;;;;19.17;45.93;101278.41;5109158;28;20027;-60
2022/05/30 04:48:42;;;;;;;3.65;1.42;;;;;;;19.16;46.05;101280.25;5108290;28;20066;-59
2022/05/30 04:51:07;;;;;;;2.47;1.42;;;;;;;19.15;46.07;101278.53;5111448;28;20087;-58
2022/05/30 04:53:33;;;;;;;2.80;1.35;;;;;;;19.15;46.21;101283.94;5112827;27;20046;-60
2022/05/30 04:55:59;;;;;;;2.30;1.50;;;;;;;19.16;46.51;101290.19;5114531;28;20034;-60
2022/05/30 04:58:25;;;;;;;2.38;1.40;;;;;;;19.16;45.86;101285.66;5108383;28;20051;-59
2022/05/30 05:00:56;;;;;;;2.70;1.88;;;;;;;19.16;46.13;101291.03;5106120;28;20028;-61
2022/05/30 05:03:22;;;;;;;2.80;1.33;;;;;;;19.15;46.22;101288.47;5112886;27;20044;-60
2022/05/30 05:05:47;;;;;;;2.30;1.38;;;;;;;19.17;46.01;101292.72;5108391;28;20028;-60
2022/05/30 05:08:15;;;;;;;2.95;1.50;;;;;;;19.17;46.07;101298.09;5108605;27;20038;-61
2022/05/30 05:10:47;;;;;;;2.92;1.20;;;;;;;19.17;46.26;101294.56;5109145;28;20008;-59
2022/05/30 05:13:12;;;;;;;3.97;1.90;;;;;;;19.16;46.32;101296.44;5091846;28;20659;-60
2022/05/30 05:15:37;;;;;;;4.15;1.73;;;;;;;19.17;46.40;101305.34;5092866;28;20456;-60
2022/05/30 05:18:03;;;;;;;2.03;1.30;;;;;;;19.16;46.45;101300.97;5105334;28;20516;-60
2022/05/30 05:20:29;;;;;;;2.35;1.23;;;;;;;19.16;46.13;101299.13;5109234;28;20468;-60
2022/05/30 05:22:54;;;;;;;1.88;1.30;;;;;;;19.14;46.16;101294.88;5108151;27;20030;-60
2022/05/30 05:25:19;;;;;;;3.70;1.48;;;;;;;19.15;46.42;101300.09;5109838;28;20030;-60
2022/05/30 05:27:47;;;;;;;4.68;2.00;;;;;;;19.16;46.14;101301.81;5110180;28;20031;-60
2022/05/30 05:30:12;;;;;;;1.90;1.10;;;;;;;19.16;46.48;101303.66;5107436;28;20012;-60
2022/05/30 05:32:38;;;;;;;3.67;1.45;;;;;;;19.17;46.31;101299.97;5109222;27;20045;-59
2022/05/30 05:35:03;;;;;;;2.05;1.60;;;;;;;19.17;46.43;101297.28;5107662;28;20031;-60
2022/05/30 05:37:29;;;;;;;2.63;1.23;;;;;;;19.17;46.64;101298.09;5091894;28;20032;-60
2022/05/30 05:39:54;;;;;;;3.78;1.35;;;;;;;19.16;46.50;101301.81;5108970;28;20086;-59
2022/05/30 05:42:19;;;;;;;3.22;1.50;;;;;;;19.16;46.51;101296.44;5108343;28;20136;-60
2022/05/30 05:44:45;;;;;;;2.38;1.30;;;;;;;19.14;46.62;101297.59;5092986;28;20031;-60
2022/05/30 05:47:10;;;;;;;1.90;1.13;;;;;;;19.17;46.68;101303.50;5105956;28;20038;-60
2022/05/30 05:49:35;;;;;;;2.50;1.17;;;;;;;19.15;46.74;101305.50;5107434;28;20135;-59
2022/05/30 05:52:00;;;;;;;2.22;1.45;;;;;;;19.17;46.82;101308.06;5107212;28;20407;-59
2022/05/30 05:54:26;;;;;;;2.22;1.20;;;;;;;19.16;46.49;101296.44;5108769;27;20027;-51
2022/05/30 05:56:52;;;;;;;3.95;1.52;;;;;;;19.15;46.95;101300.09;5107910;28;20028;-56
2022/05/30 05:59:17;;;;;;;3.25;1.58;;;;;;;19.15;47.09;101299.25;5111636;28;20051;-58
2022/05/30 06:01:43;;;;;;;1.85;1.05;;;;;;;19.14;47.12;101300.28;5107402;28;20032;-58
2022/05/30 06:04:10;;;;;;;3.15;1.50;;;;;;;19.18;47.07;101307.03;5090953;28;20028;-56
2022/05/30 06:06:35;;;;;;;2.95;1.20;;;;;;;19.18;47.02;101304.34;5111127;28;20111;-56
2022/05/30 06:09:04;;;;;;;2.35;1.20;;;;;;;19.17;46.98;101308.91;5109718;27;20035;-55
2022/05/30 06:11:30;;;;;;;;;;;;;;;19.18;47.54;101307.88;5116128;28;20098;-55
2022/05/30 06:13:55;;;;;;;2.13;0.95;;;;;;;19.19;47.53;101308.72;5105194;27;19947;-54
2022/05/30 06:16:23;;;;;;;5.10;1.40;;;;;;;19.14;47.07;101297.59;5114730;27;20024;-59
2022/05/30 06:18:50;;;;;;;3.30;1.00;;;;;;;19.17;47.34;101306.19;5106360;28;20016;-56
2022/05/30 06:21:15;;;;;;;2.20;1.17;;;;;;;19.19;47.04;101306.03;5112039;27;20032;-57
2022/05/30 06:23:41;;;;;;;2.10;1.02;;;;;;;19.13;47.04;101302.13;5109547;28;20067;-55
2022/05/30 06:26:08;;;;;;;3.17;1.00;;;;;;;19.20;47.01;101310.44;5115352;28;20095;-60
2022/05/30 06:28:35;;;;;;;3.25;1.13;;;;;;;19.15;47.17;101301.97;5110245;28;20046;-57
2022/05/30 06:31:05;;;;;;;1.35;0.90;;;;;;;19.18;46.95;101304.34;5109673;28;20027;-54
2022/05/30 06:33:31;;;;;;;2.58;1.00;;;;;;;19.20;47.28;101308.56;5109494;27;20116;-57
2022/05/30 06:35:56;;;;;;;3.17;1.00;;;;;;;19.19;47.03;101309.56;5115096;28;20035;-58
2022/05/30 06:38:21;;;;;;;2.30;1.10;;;;;;;19.19;47.20;101314.94;5115182;27;20050;-58
2022/05/30 06:40:46;;;;;;;2.20;1.20;;;;;;;19.19;46.82;101317.66;5113490;28;20046;-54
2022/05/30 06:43:11;;;;;;;1.88;1.10;;;;;;;19.19;46.75;101320.34;5114644;27;20039;-57
2022/05/30 06:45:37;;;;;;;3.42;1.20;;;;;;;19.19;46.93;101319.50;5110230;28;20039;-58
2022/05/30 06:48:02;;;;;;;1.70;0.82;;;;;;;19.13;46.99;101310.22;5117128;28;20028;-56
2022/05/30 06:50:28;;;;;;;3.03;0.93;;;;;;;19.20;46.55;101326.59;5116155;27;20027;-57
2022/05/30 06:52:53;;;;;;;2.65;1.33;;;;;;;19.20;46.99;101324.75;5105402;28;20042;-56
2022/05/30 06:55:18;;;;;;;1.15;0.80;;;;;;;19.17;46.74;101319.66;5114754;28;20095;-57
2022/05/30 07:00:30;;;;;;;1.75;0.88;;;;;;;19.22;46.80;101327.28;5103322;28;20043;-58
2022/05/30 07:02:55;;;;;;;1.77;0.80;;;;;;;19.07;46.53;101301.91;5107056;28;20023;-54
2022/05/30 07:05:21;;;;;;;1.52;0.93;;;;;;;19.24;46.62;101336.03;5112495;27;20035;-56
2022/05/30 07:07:46;;;;;;;1.83;1.10;;;;;;;19.26;46.48;101330.50;5093922;28;20035;-56
2022/05/30 07:10:12;;;;;;;10.00;1.00;;;;;;;19.27;46.85;101337.56;5110530;27;20595;-57
2022/05/30 07:12:37;;;;;;;1.33;0.98;;;;;;;19.27;46.82;101338.41;5108856;28;20024;-56
2022/05/30 07:15:03;;;;;;;1.65;0.82;;;;;;;19.28;46.85;101339.25;5110081;27;20060;-54
2022/05/30 07:17:28;;;;;;;2.10;0.88;;;;;;;19.27;46.46;101334.88;5105785;28;20114;-55
2022/05/30 07:19:56;;;;;;;1.75;0.90;;;;;;;19.31;46.29;101336.25;5106525;28;20632;-54
2022/05/30 07:22:21;;;;;;;1.63;1.00;;;;;;;19.29;46.54;101332.88;5109847;27;20035;-60
2022/05/30 07:24:47;;;;;;;1.48;0.90;;;;;;;19.28;46.51;101332.00;5106895;27;20026;-55
2022/05/30 07:27:12;;;;;;;2.15;1.20;;;;;;;19.31;46.58;101333.56;5106524;27;20066;-56
2022/05/30 07:29:37;;;;;;;1.05;0.73;;;;;;;19.31;46.28;101337.09;5086080;28;20056;-58
2022/05/30 07:32:04;;;;;;;1.58;1.13;;;;;;;19.33;46.25;101342.34;5108687;28;20036;-58
2022/05/30 07:34:30;;;;;;;1.33;0.77;;;;;;;19.34;46.44;101341.34;5113704;27;20092;-58
2022/05/30 07:36:57;;;;;;;2.42;1.05;;;;;;;19.32;46.41;101341.47;5109224;28;20028;-58
2022/05/30 07:39:23;;;;;;;1.10;0.77;;;;;;;19.34;46.37;101341.34;5106446;27;20125;-53
2022/05/30 07:41:48;;;;;;;1.05;0.60;;;;;;;19.32;46.18;101344.16;5110023;28;20032;-54
2022/05/30 07:44:14;;;;;;;1.88;0.80;;;;;;;19.32;46.17;101348.72;5107452;28;20091;-58
2022/05/30 07:46:42;;;;;;;1.60;0.90;;;;;;;19.32;46.49;101351.41;5110568;28;20020;-56
2022/05/30 07:49:07;;;;;;;1.02;0.80;;;;;;;19.29;46.42;101346.38;5111099;28;20034;-57
2022/05/30 07:51:32;;;;;;;1.27;1.15;;;;;;;19.28;46.43;101345.50;5103409;28;20036;-56
2022/05/30 07:53:58;;;;;;;2.00;0.80;;;;;;;19.27;46.50;101346.50;5114503;27;20027;-56
2022/05/30 07:56:23;;;;;;;2.00;0.82;;;;;;;19.26;46.64;101339.44;5108894;27;20039;-57
2022/05/30 07:58:49;;;;;;;1.38;1.00;;;;;;;19.28;46.73;101339.25;5107756;27;20387;-59
2022/05/30 08:01:17;;;;;;;1.13;0.90;;;;;;;19.27;46.40;101340.28;5112755;28;20061;-56
2022/05/30 08:03:42;;;;;;;1.10;0.85;;;;;;;19.26;46.71;101330.50;5113073;27;20043;-56
2022/05/30 08:06:15;;;;;;;0.93;0.63;;;;;;;19.27;46.45;101338.41;5108670;28;20053;-52
2022/05/30 08:08:41;;;;;;;0.85;0.70;;;;;;;19.21;46.45;101328.28;5109042;27;20023;-58
2022/05/30 08:11:06;;;;;;;2.08;0.80;;;;;;;19.27;46.92;101335.72;5104673;28;20027;-58
2022/05/30 08:13:32;;;;;;;1.30;0.88;;;;;;;19.28;46.43;101334.72;5107113;28;20031;-50
2022/05/30 08:15:57;;;;;;;1.83;0.80;;;;;;;19.24;46.42;101327.94;5111981;28;20110;-53
2022/05/30 08:18:23;;;;;;;1.27;0.80;;;;;;;19.28;46.63;101334.72;5112238;28;20024;-53
2022/05/30 08:20:48;;;;;;;2.00;0.80;;;;;;;19.25;46.53;101337.75;5102686;28;20058;-58
2022/05/30 08:23:13;;;;;;;1.42;0.73;;;;;;;19.27;46.47;101338.41;5114287;27;20016;-55
2022/05/30 08:25:39;;;;;;;1.55;0.73;;;;;;;19.30;46.57;101343.50;5107848;28;20038;-56
2022/05/30 08:28:04;;;;;;;1.45;0.63;;;;;;;19.32;46.64;101344.16;5111456;27;20034;-53
2022/05/30 08:30:29;;;;;;;1.58;1.00;;;;;;;19.38;45.67;101343.53;5108366;28;20031;-56
2022/05/30 08:32:54;;;;;;;1.15;0.65;;;;;;;19.44;45.54;101342.03;5089053;28;20054;-57
2022/05/30 08:35:20;;;;;;;1.25;0.60;;;;;;;19.49;45.16;101348.63;5107617;28;20031;-55
2022/05/30 08:37:46;;;;;;;0.77;0.50;;;;;;;19.53;44.81;101343.75;5110699;28;20032;-50
2022/05/30 08:43:17;;;;;;;2.75;0.75;;;;;;;19.52;44.38;101335.84;5116560;27;20430;-55
2022/05/30 08:45:45;;;;;;;1.40;0.60;;;;;;;19.59;44.75;101345.00;5097610;28;20116;-64
2022/05/30 08:48:15;;;;;;;0.93;0.50;;;;;;;19.59;44.74;101345.00;5093245;28;20028;-52
2022/05/30 08:50:54;;;;;;;1.45;0.85;;;;;;;19.60;44.98;101346.66;5112439;28;20103;-57
2022/05/30 08:53:53;;;;;;;0.75;0.60;;;;;;;19.61;44.78;101345.69;5111895;27;20111;-54
2022/05/30 08:56:28;;;;;;;1.63;0.88;;;;;;;19.59;44.87;101345.00;5118910;28;20011;-54
2022/05/30 08:59:34;;;;;;;1.05;0.70;;;;;;;19.58;44.68;101346.84;5092365;28;20030;-52
2022/05/30 09:02:10;;;;;;;0.95;0.60;;;;;;;19.57;44.65;101341.59;5092915;28;20534;-53
2022/05/30 09:05:06;;;;;;;0.70;0.60;;;;;;;19.56;45.00;101346.16;5091750;28;20019;-53
2022/05/30 09:07:37;;;;;;;1.20;0.80;;;;;;;19.55;44.73;101344.47;5094273;27;20044;-54
2022/05/30 09:10:10;;;;;;;1.08;0.68;;;;;;;19.55;44.93;101343.63;5109274;28;20044;-59
2022/05/30 09:12:42;;;;;;;0.90;0.50;;;;;;;19.55;44.92;101354.41;5093051;28;20283;-59
2022/05/30 09:15:17;;;;;;;2.00;0.68;;;;;;;19.54;45.00;101353.56;5109906;28;20567;-57
2022/05/30 09:17:50;;;;;;;1.83;1.38;;;;;;;19.53;44.55;101342.91;5089677;28;20020;-59
2022/05/30 09:20:19;;;;;;;0.77;0.70;;;;;;;19.54;44.84;101345.47;5091842;28;20024;-59
2022/05/30 09:22:44;;;;;;;0.98;0.60;;;;;;;19.55;44.58;101349.00;5111563;27;20023;-60
2022/05/30 09:25:56;;;;;;;1.35;1.13;;;;;;;19.54;44.55;101355.38;5090798;28;20020;-60
2022/05/30 09:28:25;;;;;;;2.38;0.70;;;;;;;19.55;44.69;101347.16;5110158;28;20063;-59
2022/05/30 09:31:13;;;;;;;1.85;0.70;;;;;;;19.55;44.77;101357.94;5089985;28;20019;-50
2022/05/30 09:33:41;;;;;;;1.00;0.70;;;;;;;19.55;44.64;101357.94;5111799;28;20028;-51
2022/05/30 09:36:19;;;;;;;0.57;0.43;;;;;;;19.56;44.53;101346.16;5110386;28;20512;-52
2022/05/30 09:38:58;;;;;;;0.88;0.60;;;;;;;19.57;45.08;101345.13;5097140;28;20039;-48
2022/05/30 09:41:26;;;;;;;1.08;0.60;;;;;;;19.55;45.03;101349.84;5110200;28;20032;-53
2022/05/30 09:43:55;;;;;;;0.40;0.38;;;;;;;19.59;45.18;101353.06;5093446;28;20028;-53
2022/05/30 09:46:37;;;;;;;1.33;0.50;;;;;;;19.59;44.85;101347.69;5090187;28;20023;-53
2022/05/30 09:49:17;;;;;;;1.23;0.50;;;;;;;19.60;44.97;101349.38;5097659;28;20547;-55
2022/05/30 09:51:45;;;;;;;0.65;0.50;;;;;;;19.59;44.84;101350.38;5119095;27;20027;-57
2022/05/30 09:54:24;;;;;;;1.77;0.70;;;;;;;19.61;44.86;101356.47;5106495;28;20034;-55
2022/05/30 09:56:50;;;;;;;;;;;;;;;19.61;44.63;101354.63;5107251;28;20020;-49
2022/05/30 09:59:15;;;;;;;1.65;0.65;;;;;;;19.61;44.80;101360.00;5093698;28;19977;-57
2022/05/30 10:01:49;;;;;;;1.20;0.60;;;;;;;19.56;45.07;101346.16;5109779;28;20023;-59
2022/05/30 10:04:34;;;;;;;2.13;0.80;;;;;;;19.62;44.65;101358.16;5098712;28;20099;-59
2022/05/30 10:07:07;;;;;;;3.35;1.27;;;;;;;19.61;44.96;101356.47;5096671;28;20040;-58
2022/05/30 10:09:34;;;;;;;7.45;2.28;;;;;;;19.61;44.79;101364.56;5122949;27;20460;-57
2022/05/30 10:12:00;;;;;;;4.55;1.70;;;;;;;19.61;44.64;101365.41;5094067;28;20072;-59
2022/05/30 10:14:32;;;;;;;6.03;2.05;;;;;;;19.61;44.69;101373.50;5112352;28;20035;-59
2022/05/30 10:16:59;;;;;;;4.25;1.60;;;;;;;19.61;44.97;101373.50;5076444;28;20050;-58
2022/05/30 10:19:30;;;;;;;4.10;1.70;;;;;;;19.62;45.11;101371.66;5094787;28;20020;-56
2022/05/30 10:28:14;;;;;;;4.35;1.73;;;;;;;19.62;44.96;101369.78;5095878;27;20388;-57
2022/05/30 10:30:52;;;;;;;4.47;2.15;;;;;;;19.63;45.29;101371.50;5105723;28;20046;-58
2022/05/30 10:33:48;;;;;;;5.60;1.95;;;;;;;19.65;45.12;101374.03;5110442;28;20087;-53
2022/05/30 10:36:16;;;;;;;4.07;1.70;;;;;;;19.63;45.27;101379.59;5093803;28;20651;-58
2022/05/30 10:38:58;;;;;;;6.18;2.80;;;;;;;19.64;44.82;101375.88;5111733;28;20098;-58
2022/05/30 10:41:35;;;;;;;5.53;2.08;;;;;;;19.65;45.33;101382.13;5107742;28;20097;-57
2022/05/30 10:44:08;;;;;;;5.45;2.03;;;;;;;19.65;45.08;101380.25;5090754;28;20035;-55
2022/05/30 10:46:37;;;;;;;8.65;2.28;;;;;;;19.66;44.92;101379.25;5090862;28;20032;-55
2022/05/30 10:49:09;;;;;;;6.32;1.88;;;;;;;19.68;45.38;101379.09;5113663;27;20106;-54
2022/05/30 10:51:54;;;;;;;6.63;2.00;;;;;;;19.68;45.25;101379.94;5090573;28;20024;-49
2022/05/30 10:54:43;;;;;;;3.95;1.75;;;;;;;19.69;44.94;101372.69;5091820;27;20031;-50
2022/05/30 10:57:16;;;;;;;4.68;1.85;;;;;;;19.70;45.22;101369.81;5089340;28;20027;-52
2022/05/30 10:59:45;;;;;;;5.55;1.80;;;;;;;19.71;44.71;101370.69;5088259;28;20195;-50
2022/05/30 11:02:32;;;;;;;4.05;1.85;;;;;;;19.71;45.31;101368.84;5086288;28;20027;-49
2022/05/30 11:05:14;;;;;;;7.43;2.50;;;;;;;19.71;44.98;101371.53;5106546;28;20027;-49
2022/05/30 11:07:59;;;;;;;3.78;1.48;;;;;;;19.72;45.31;101372.38;5092207;27;20024;-49
2022/05/30 11:10:38;;;;;;;5.30;2.00;;;;;;;19.73;44.89;101372.22;5092177;28;20024;-52
2022/05/30 11:13:22;;;;;;;;;;;;;;;19.73;45.01;101372.22;5090265;27;20051;-56
2022/05/30 11:15:58;;;;;;;5.35;1.40;;;;;;;19.77;44.94;101372.72;5106131;28;19967;-53
2022/05/30 11:18:37;;;;;;;6.88;2.05;;;;;;;19.78;45.29;101374.41;5091344;27;20461;-55
2022/05/30 11:21:29;;;;;;;4.22;2.05;;;;;;;19.79;45.52;101372.56;5098405;28;20439;-57
2022/05/30 11:23:55;;;;;;;5.32;1.88;;;;;;;19.79;45.07;101386.88;5115729;28;20042;-57
2022/05/30 11:26:42;;;;;;;4.55;1.70;;;;;;;19.81;45.14;101381.34;5100259;28;20110;-55
2022/05/30 11:29:38;;;;;;;5.13;1.63;;;;;;;19.82;45.43;101378.47;5106269;28;20053;-58
2022/05/30 11:32:10;;;;;;;4.88;1.60;;;;;;;19.78;45.46;101366.31;5087543;28;20048;-58
2022/05/30 11:35:18;;;;;;;4.25;1.50;;;;;;;19.85;45.48;101375.47;5105395;28;20055;-59
2022/05/30 11:37:57;;;;;;;5.38;1.80;;;;;;;19.86;45.29;101379.00;5105971;27;20034;-52
2022/05/30 11:40:36;;;;;;;5.75;2.03;;;;;;;19.81;45.60;101375.94;5099072;28;20040;-53
2022/05/30 11:43:41;;;;;;;2.97;1.17;;;;;;;19.81;45.31;101378.66;5090104;28;20027;-54
2022/05/30 11:46:25;;;;;;;4.85;1.65;;;;;;;19.87;45.13;101388.78;5107078;28;20085;-54
2022/05/30 11:49:03;;;;;;;4.68;1.60;;;;;;;19.83;45.47;101374.75;5099376;28;20032;-51
2022/05/30 11:51:48;;;;;;;3.85;1.70;;;;;;;19.87;45.09;101376.13;5087190;28;20016;-51
2022/05/30 11:54:50;;;;;;;3.20;1.55;;;;;;;19.89;45.10;101382.22;5085402;28;20058;-58